This is the latest recevied weather packets stored in our database for station/object W7TRD. If no packets are shown the sender has not sent any weather packets the latest 10 day(s).
| Time | Temp. | Humidity | Pressure | Rain* | Wind** | Luminosity | Snow |
|---|---|---|---|---|---|---|---|
| 1787776676 | 25° C | 57% | 1018.2 hPa | 0 mm | - | 739 W/m² | - |
| 1787776375 | 24.44° C | 55% | 1018.2 hPa | 0 mm | - | 708 W/m² | - |
| 1787776073 | 24.44° C | 56% | 1018 hPa | 0 mm | - | 742 W/m² | - |
| 1787775768 | 23.89° C | 58% | 1018.2 hPa | 0 mm | - | 759 W/m² | - |
| 1787775467 | 24.44° C | 57% | 1018.3 hPa | 0 mm | - | 664 W/m² | - |
| 1787775166 | 23.33° C | 58% | 1018.2 hPa | 0 mm | - | 764 W/m² | - |
| 1787774866 | 24.44° C | 56% | 1018.4 hPa | 0 mm | - | 745 W/m² | - |
| 1787774565 | 23.89° C | 60% | 1018.6 hPa | 0 mm | - | 780 W/m² | - |
| 1787774265 | 23.33° C | 59% | 1018.6 hPa | 0 mm | - | 621 W/m² | - |
| 1787773964 | 23.89° C | 60% | 1018.8 hPa | 0 mm | - | 693 W/m² | - |
| 1787773663 | 22.78° C | 60% | 1018.6 hPa | 0 mm | - | 761 W/m² | - |
| 1787773359 | 23.89° C | 60% | 1018.8 hPa | 0 mm | - | 762 W/m² | - |
| 1787773054 | 23.33° C | 61% | 1018.8 hPa | 0 mm | - | 757 W/m² | - |
| 1787772750 | 22.78° C | 62% | 1018.8 hPa | 0 mm | - | 746 W/m² | - |
| 1787772448 | 22.22° C | 62% | 1018.9 hPa | 0 mm | - | 760 W/m² | - |
| 1787772148 | 22.22° C | 63% | 1018.7 hPa | 0 mm | - | 756 W/m² | - |
| 1787771847 | 22.78° C | 63% | 1019 hPa | 0 mm | - | 595 W/m² | - |
| 1787771547 | 22.78° C | 62% | 1019 hPa | 0 mm | - | 632 W/m² | - |
| 1787771241 | 22.78° C | 65% | 1019.1 hPa | 0 mm | - | 609 W/m² | - |
| 1787770937 | 22.22° C | 64% | 1019.3 hPa | 0 mm | - | 749 W/m² | - |
| 1787770635 | 20.56° C | 68% | 1019.1 hPa | 0 mm | - | 744 W/m² | - |
| 1787770330 | 20.56° C | 69% | 1019.3 hPa | 0 mm | - | 636 W/m² | - |
| 1787770033 | 20.56° C | 69% | 1019.7 hPa | 0 mm | - | 688 W/m² | - |
* Rain latest hour (hover to see other rain measurements)
** Current wind speed in m/s (hover to see current wind gust speed)